Reno, NV (89595)

1:39 AM PST on February 06, 2016 (GMT -0800)
NVDOT | | Change Station
CLOSE
Current Station
Personal Weather Station
Location: Reno, NV
Elevation: 4460 ft
Nearby Weather Stations

Elev 4460 ft 39.53 °N, 119.79 °W | Updated 30 minutes ago

Scattered Clouds
Scattered Clouds
31.0 °F
Feels Like 31.0 °F
N
0.0
Wind Variable Wind from North
Gusts 0.0 mph

Today
High -- | Low -- °F
--% Chance of Precip.
Yesterday
High -- | Low -- °F
Precip. -- in
Pressure 30.51 in
Visibility 10.0 miles
Clouds Scattered Clouds 20000 ft
Dew Point 28.0 °F
Humidity 88%
Rainfall in
Snow Depth Not available.
7:02 AM 5:24 PM
Waning Crescent, 6% visible
METAR KRNO 060855Z 00000KT 10SM SCT200 M01/M03 A3049 RMK AO2 SLP331 T10111033 51003
Pressure 30.51 in
Visibility 10.0 miles
Clouds Scattered Clouds 20000 ft
Dew Point 28.0 °F
Humidity 88%
Rainfall in
Snow Depth Not available.
7:02 AM 5:24 PM
Waning Crescent, 6% visible
METAR KRNO 060855Z 00000KT 10SM SCT200 M01/M03 A3049 RMK AO2 SLP331 T10111033 51003

10-Day Weather Forecast

Almanac

Astronomy

Feb. 06, 2016 Rise Set
Actual Time
Civil Twilight
Nautical Twilight
Astronomical Twilight
Moon
Length of Visible Light
Length of Day
Tomorrow will be .
, % of the Moon is Illuminated

Today's Extremes

State Highs State Lows

Community

WunderPhotos

Upload Photos

1,890,933 photos uploaded!

WunderBlog® & News

Nearby

Air Quality

  Air Quality AQ Index Pollutant
Not available.

Snow Depth

Station Depth Elevation

Earthquake Activity

City Distance Mag. Time & Date
Minimum magnitude displayed is 2.5.

Coastal Water Temperatures

Place Temperature

Stations

Nearby Weather Stations

Station Location Temp. Windchill Dew Point Humidity Wind Precip. Elev Updated Type
                   

Watches & Warnings

There are currently no watches in effect.